EGXE - Leeming
Distance from station: E 5mi, 14km
Updated: 08/18/2018 4:50pm
Mostly Cloudy
Mostly Cloudy
 Wind from SE
Wind: SE 6 mph , 9 km/h
Temperature: 66°F , 19°C
Dew Point: 61°F , 16°C
Humidity: 83%
Barometer: 29.97 inHg , 1015 hPa
Clouds: Mostly Cloudy
Visibility: 6 miles , 10 km
Cloud details: Partly Cloudy 1800 ft
Mostly Cloudy 12000 ft
2018/08/18 23:50 EGXE 182350Z AUTO 13005KT 9999 SCT018/// BKN120/// 19/16 Q1015